Sacul, Texas
Current Conditions -  °F | °C
As of 10:55 AM on Saturday 22 Nov 2014 (Local Time) from KJSO Reporting Station
Scattered Clouds Scattered Clouds  
Wind Chill: 65°   Ceiling: Unl
Heat Index: 65°   Visibility: 10mi
Dew Point: 56°   Wind: 12mph
Humidity: 73%   Direction: 160°SSE
Pressure: 30.09"   Gusts: NA
Location:  31.82°N, 94.92°W
Report Text: KJSO 221655Z AUTO 16010KT 10SM SCT030 18/13 A3009 RMK AO2 LTG DSNT SW T01850136
Loading
Personal Weather Stations






























Interactive Weather Map New forecast layout! Learn more

10-Day Weather Forecast

Advertisements
Track Severe Weather on mobile